KCOT

Cotulla-La Salle County Airport

Cotulla, Texas, USA
METAR KCOT 201504Z AUTO 13011KT 10SM FEW026 BKN031 23/19 A2987 RMK AO2 T02280194
Observed Flight Rules
Feb-20 @ 15:04 UTC (5 hours ago) Visual Flight Rules
Wind Visibility Clouds
130° at 11 knots 10 miles
  • Few at 2,600' AGL
  • Broken at 3,100' AGL
Temperatures Readings
Current 23°C / 73°F
Dewpoint 19°C / 66°F
Humidity 78%
Altimeter 29.87" Hg
Pressure 1012 hPa
Elevation 140
METAR KCOT 201504Z AUTO 13011KT 10SM FEW026 BKN031 23/19 A2987 RMK AO2 T02280194
Observed Flight Rules
Feb-20 @ 15:04 UTC
(5 hours ago)
VFR
Wind Visibility
130° at 11 knots 10 miles
Clouds
  • Few at 2,600' AGL
  • Broken at 3,100' AGL
Temperature Dewpoint
23°C / 73°F 19°C / 66°F
Humidity Altimeter Pressure
78% 29.87" Hg 1012 hPa